createdAt,value
2018-11-23T00:03:22.848Z,28.65
2018-11-23T00:08:16.346Z,24.60
2018-11-23T00:13:10.121Z,25.35
2018-11-23T00:18:04.115Z,28.95
2018-11-23T00:22:57.697Z,25.85
2018-11-23T00:27:52.503Z,22.95
2018-11-23T00:32:46.427Z,28.83
2018-11-23T00:37:39.895Z,26.73
2018-11-23T00:42:33.334Z,25.50
2018-11-23T00:47:27.273Z,28.75
2018-11-23T00:52:20.686Z,27.48
2018-11-23T00:57:15.159Z,27.42
2018-11-23T01:02:08.843Z,32.10
2018-11-23T01:07:02.753Z,28.15
2018-11-23T01:11:56.205Z,29.30
2018-11-23T01:16:49.712Z,30.68
2018-11-23T01:21:43.243Z,27.75
2018-11-23T01:26:37.158Z,31.73
2018-11-23T01:31:30.690Z,30.95
2018-11-23T01:36:25.442Z,29.55
2018-11-23T01:41:18.915Z,30.82
2018-11-23T01:46:12.627Z,30.40
2018-11-23T01:51:06.147Z,30.20
2018-11-23T01:55:59.600Z,31.65
2018-11-23T02:00:52.958Z,34.83
2018-11-23T02:05:47.433Z,30.97
2018-11-23T02:10:40.816Z,32.60
2018-11-23T02:15:34.212Z,31.75
2018-11-23T02:20:27.654Z,33.33
2018-11-23T02:25:21.125Z,34.90
2018-11-23T02:30:18.441Z,34.50
2018-11-23T02:35:12.362Z,33.10
2018-11-23T02:40:06.857Z,37.55
2018-11-23T02:45:00.386Z,37.53
2018-11-23T02:49:54.466Z,37.35
2018-11-23T02:54:47.866Z,18.42
2018-11-23T02:59:41.277Z,19.20
2018-11-23T03:04:34.926Z,28.38
2018-11-23T03:09:28.365Z,26.12
2018-11-23T03:14:21.927Z,19.82
2018-11-23T03:19:15.686Z,18.85
2018-11-23T03:24:09.152Z,19.05
2018-11-23T03:29:03.408Z,24.23
2018-11-23T03:33:57.035Z,23.60
2018-11-23T03:38:50.813Z,25.12
2018-11-23T03:43:44.423Z,28.75
2018-11-23T03:48:38.236Z,26.52
2018-11-23T03:53:32.105Z,28.02
2018-11-23T03:58:27.723Z,21.45
2018-11-23T04:03:21.294Z,27.85
2018-11-23T04:08:14.872Z,27.13
2018-11-23T04:13:08.275Z,25.92
2018-11-23T04:18:01.797Z,25.75
2018-11-23T04:22:55.571Z,23.10
2018-11-23T04:27:49.055Z,24.92
2018-11-23T04:32:42.876Z,29.60
2018-11-23T04:37:36.870Z,28.42
2018-11-23T04:42:30.867Z,28.65
2018-11-23T04:47:24.991Z,34.43
2018-11-23T04:52:18.341Z,30.15
2018-11-23T04:57:11.935Z,42.65
2018-11-23T05:02:06.248Z,43.58
2018-11-23T05:06:59.685Z,31.95
2018-11-23T05:11:53.203Z,33.42
2018-11-23T05:16:47.120Z,28.57
2018-11-23T05:21:40.650Z,36.00
2018-11-23T05:26:34.055Z,28.90
2018-11-23T05:31:27.656Z,21.48
2018-11-23T05:36:21.130Z,25.57
2018-11-23T05:41:14.601Z,28.55
2018-11-23T05:46:08.256Z,26.23
2018-11-23T05:51:01.727Z,27.42
2018-11-23T05:55:55.550Z,28.25
2018-11-23T06:00:49.026Z,35.00
2018-11-23T06:05:42.952Z,32.25
2018-11-23T06:10:36.381Z,32.88
2018-11-23T06:15:29.915Z,25.05
2018-11-23T06:20:24.872Z,25.92
2018-11-23T06:25:57.568Z,25.00
2018-11-23T06:30:51.101Z,27.98
2018-11-23T06:35:44.736Z,33.42
2018-11-23T06:40:38.410Z,24.35
2018-11-23T06:45:35.118Z,32.95
2018-11-23T06:50:28.604Z,28.90
2018-11-23T06:55:22.190Z,26.33
2018-11-23T07:00:16.434Z,24.82
2018-11-23T07:05:10.526Z,26.42
2018-11-23T07:10:04.262Z,28.23
2018-11-23T07:14:57.761Z,26.10
2018-11-23T07:19:56.377Z,26.33
2018-11-23T07:24:50.054Z,29.18
2018-11-23T07:29:43.584Z,28.87
2018-11-23T07:34:37.076Z,24.92
2018-11-23T07:39:41.506Z,23.70
2018-11-23T07:44:35.055Z,36.88
2018-11-23T07:49:28.659Z,29.92
2018-11-23T07:54:22.718Z,24.92
2018-11-23T07:59:18.061Z,55.48
2018-11-23T08:04:11.995Z,25.20
2018-11-23T08:09:08.733Z,23.87
2018-11-23T08:14:02.305Z,39.30
2018-11-23T08:18:56.604Z,28.83
2018-11-23T08:23:50.318Z,29.23
2018-11-23T08:28:43.781Z,27.90
2018-11-23T08:33:37.342Z,29.65
2018-11-23T08:38:31.333Z,27.25
2018-11-23T08:43:24.810Z,26.37
2018-11-23T08:48:18.914Z,29.52
2018-11-23T08:53:12.508Z,33.60
2018-11-23T08:58:06.109Z,26.68
2018-11-23T09:03:00.872Z,29.12
2018-11-23T09:07:55.193Z,25.65
2018-11-23T09:12:50.893Z,28.23
2018-11-23T09:17:45.024Z,32.70
2018-11-23T09:22:38.516Z,28.10
2018-11-23T09:27:32.405Z,23.92
2018-11-23T09:32:26.000Z,24.05
2018-11-23T09:37:19.994Z,25.57
2018-11-23T09:42:13.551Z,23.95
2018-11-23T09:47:10.146Z,24.18
2018-11-23T09:52:00.640Z,25.40
2018-11-23T09:56:54.323Z,27.50
2018-11-23T10:01:47.791Z,25.65
2018-11-23T10:06:41.520Z,28.45
2018-11-23T10:11:35.021Z,25.55
2018-11-23T10:16:28.902Z,26.48
2018-11-23T10:21:22.401Z,23.77
2018-11-23T10:26:15.741Z,26.48
2018-11-23T10:31:09.468Z,23.12
2018-11-23T10:36:03.001Z,23.80
2018-11-23T10:40:56.937Z,24.77
2018-11-23T10:45:50.420Z,75.83
2018-11-23T10:50:44.007Z,26.00
2018-11-23T10:55:38.170Z,20.57
2018-11-23T11:00:37.183Z,35.60
2018-11-23T11:06:34.424Z,24.85
2018-11-23T11:11:28.130Z,21.07
2018-11-23T11:16:21.980Z,30.57
2018-11-23T11:21:16.188Z,21.30
2018-11-23T11:26:10.599Z,22.13
2018-11-23T11:31:05.436Z,21.57
2018-11-23T11:35:59.307Z,20.72
2018-11-23T11:40:53.757Z,27.42
2018-11-23T11:45:47.400Z,21.12
2018-11-23T11:50:40.969Z,23.57
2018-11-23T11:55:34.661Z,26.93
2018-11-23T12:00:28.155Z,24.92
2018-11-23T12:05:21.713Z,26.60
2018-11-23T12:10:18.540Z,26.05
2018-11-23T12:15:12.924Z,21.87
2018-11-23T12:20:08.983Z,28.32
2018-11-23T12:25:02.707Z,23.12
2018-11-23T12:29:56.865Z,25.15
2018-11-23T12:34:50.650Z,27.02
2018-11-23T12:39:44.773Z,20.37
2018-11-23T12:44:39.865Z,22.25
2018-11-23T12:49:32.706Z,27.27
2018-11-23T12:54:26.379Z,19.35
2018-11-23T12:59:20.052Z,22.13
2018-11-23T13:04:14.074Z,19.10
2018-11-23T13:09:08.733Z,19.12
2018-11-23T13:14:02.760Z,17.20
2018-11-23T13:18:56.249Z,20.35
2018-11-23T13:23:49.866Z,25.52
2018-11-23T13:28:43.541Z,23.73
2018-11-23T13:33:37.129Z,29.72
2018-11-23T13:38:30.686Z,21.17
2018-11-23T13:43:26.884Z,25.52
2018-11-23T13:48:22.210Z,46.25
2018-11-23T13:53:15.975Z,28.07
2018-11-23T13:58:10.696Z,36.17
2018-11-23T14:03:05.043Z,30.17
2018-11-23T14:07:59.674Z,24.75
2018-11-23T14:12:53.401Z,24.00
2018-11-23T14:17:48.902Z,21.50
2018-11-23T14:22:42.349Z,26.00
2018-11-23T14:27:36.335Z,27.17
2018-11-23T14:32:30.167Z,26.82
2018-11-23T14:37:24.178Z,25.00
2018-11-23T14:42:18.240Z,27.82
2018-11-23T14:47:11.781Z,29.05
2018-11-23T14:52:06.637Z,42.60
2018-11-23T14:57:01.176Z,37.23
2018-11-23T15:01:54.851Z,36.10
2018-11-23T15:06:48.340Z,40.40
2018-11-23T15:11:49.498Z,45.83
2018-11-23T15:16:43.865Z,52.00
2018-11-23T15:21:37.345Z,56.83
2018-11-23T15:26:30.905Z,86.65
2018-11-23T15:31:25.392Z,82.95
2018-11-23T15:36:19.006Z,82.60
2018-11-23T15:41:12.570Z,57.80
2018-11-23T15:46:06.684Z,66.90
2018-11-23T15:51:06.279Z,60.45
2018-11-23T15:55:59.919Z,55.48
2018-11-23T16:00:53.563Z,63.45
2018-11-23T16:05:47.252Z,51.18
2018-11-23T16:10:40.998Z,64.95
2018-11-23T16:15:34.995Z,112.20
2018-11-23T16:20:31.148Z,76.25
2018-11-23T16:25:24.934Z,67.87
2018-11-23T16:30:20.951Z,76.62
2018-11-23T16:35:19.156Z,72.85
2018-11-23T16:40:19.810Z,54.93
2018-11-23T16:45:18.081Z,60.10
2018-11-23T16:50:12.482Z,49.38
2018-11-23T16:55:08.118Z,45.08
2018-11-23T17:00:09.188Z,51.85
2018-11-23T17:05:02.851Z,44.08
2018-11-23T17:09:56.527Z,37.10
2018-11-23T17:14:50.826Z,36.10
2018-11-23T17:19:44.533Z,36.50
2018-11-23T17:24:38.239Z,37.03
2018-11-23T17:29:34.022Z,41.18
2018-11-23T17:34:26.660Z,33.25
2018-11-23T17:39:20.166Z,30.55
2018-11-23T17:44:14.590Z,35.80
2018-11-23T17:49:09.009Z,50.45
2018-11-23T17:54:02.841Z,62.05
2018-11-23T17:58:56.568Z,46.50
2018-11-23T18:08:51.449Z,36.88
2018-11-23T18:13:46.100Z,45.78
2018-11-23T18:18:39.706Z,63.00
2018-11-23T18:23:33.190Z,62.80
2018-11-23T18:28:26.969Z,51.73
2018-11-23T18:33:20.452Z,32.55
2018-11-23T18:38:14.136Z,44.23
2018-11-23T18:43:07.615Z,45.90
2018-11-23T18:48:01.358Z,55.17
2018-11-23T18:52:55.190Z,60.55
2018-11-23T18:57:49.485Z,44.67
2018-11-23T19:02:44.220Z,59.58
2018-11-23T19:07:38.195Z,49.73
2018-11-23T19:12:31.931Z,53.23
2018-11-23T19:17:25.464Z,45.20
2018-11-23T19:22:18.914Z,38.15
2018-11-23T19:27:12.739Z,41.13
2018-11-23T19:32:06.244Z,53.58
2018-11-23T19:37:00.167Z,56.48
2018-11-23T19:41:53.714Z,39.98
2018-11-23T19:46:48.697Z,44.27
2018-11-23T19:51:42.210Z,51.28
2018-11-23T19:56:35.900Z,42.85
2018-11-23T20:01:29.480Z,40.43
2018-11-23T20:06:23.340Z,60.83
2018-11-23T20:11:16.869Z,65.28
2018-11-23T20:16:10.396Z,54.63
2018-11-23T20:21:04.461Z,53.90
2018-11-23T20:25:58.068Z,44.98
2018-11-23T20:30:52.476Z,49.08
2018-11-23T20:35:46.119Z,60.25
2018-11-23T20:40:40.365Z,56.75
2018-11-23T20:45:35.178Z,51.77
2018-11-23T20:50:29.361Z,54.00
2018-11-23T20:55:23.504Z,56.05
2018-11-23T21:00:18.955Z,46.05
2018-11-23T21:05:13.910Z,52.40
2018-11-23T21:10:20.461Z,52.35
2018-11-23T21:15:28.624Z,42.20
2018-11-23T21:20:22.227Z,41.08
2018-11-23T21:25:16.261Z,46.85
2018-11-23T21:30:19.914Z,48.92
2018-11-23T21:35:13.837Z,43.42
2018-11-23T21:40:10.550Z,44.08
2018-11-23T21:45:04.543Z,44.67
2018-11-23T21:49:58.188Z,40.23
2018-11-23T21:54:51.608Z,41.35
2018-11-23T21:59:45.755Z,39.45
2018-11-23T22:04:39.450Z,33.60
2018-11-23T22:09:33.279Z,32.73
2018-11-23T22:14:26.864Z,37.35
2018-11-23T22:19:22.526Z,32.05
2018-11-23T22:24:16.131Z,35.70
2018-11-23T22:29:09.727Z,29.65
2018-11-23T22:34:03.332Z,36.42
2018-11-23T22:38:56.837Z,35.95
2018-11-23T22:43:50.856Z,33.53
2018-11-23T22:48:44.815Z,42.05
2018-11-23T22:53:38.259Z,34.35
2018-11-23T22:58:32.126Z,36.40
2018-11-23T23:03:26.132Z,36.00
2018-11-23T23:08:20.113Z,38.95
2018-11-23T23:13:13.682Z,34.63
2018-11-23T23:18:07.132Z,36.10
2018-11-23T23:23:01.944Z,39.15
2018-11-23T23:27:56.063Z,36.58
2018-11-23T23:32:49.658Z,39.88
2018-11-23T23:37:43.082Z,36.75
2018-11-23T23:42:36.592Z,41.55
2018-11-23T23:47:30.096Z,40.98
2018-11-23T23:52:23.568Z,41.42
2018-11-23T23:57:17.151Z,40.35
